Time;durP1;ratioP1;P1;durP2;ratioP2;P2;SDS_P1;SDS_P2;PMS_P1;PMS_P2;Temp;Humidity;BMP_temperature;BMP_pressure;BME280_temperature;BME280_humidity;BME280_pressure;Samples;Min_cycle;Max_cycle;Signal;HPM_P1;HPM_P2
2023/06/04 00:00:01;;;;;;;5.60;1.70;;;;;;;5.00;100.00;101751.92;105734;1253;72622;-42
2023/06/04 00:02:31;;;;;;;3.80;1.80;;;;;;;4.93;100.00;101753.28;105752;1257;64067;-42
2023/06/04 00:04:59;;;;;;;6.70;2.20;;;;;;;4.85;100.00;101750.86;105675;1253;71444;-42
2023/06/04 00:07:27;;;;;;;4.30;1.60;;;;;;;4.78;100.00;101749.13;105882;1253;60534;-42
2023/06/04 00:09:54;;;;;;;5.00;1.80;;;;;;;4.70;100.00;101744.14;105908;1256;60342;-43
2023/06/04 00:12:22;;;;;;;6.10;1.90;;;;;;;4.60;100.00;101742.86;105855;1253;72677;-42
2023/06/04 00:14:50;;;;;;;17.70;2.00;;;;;;;4.52;100.00;101741.10;105734;1253;62935;-42
2023/06/04 00:17:17;;;;;;;8.40;1.50;;;;;;;4.48;100.00;101738.95;105688;1258;70424;-42
2023/06/04 00:19:45;;;;;;;2.60;1.30;;;;;;;4.47;100.00;101734.81;105662;1257;60448;-42
2023/06/04 00:22:12;;;;;;;10.70;1.80;;;;;;;4.47;100.00;101737.88;105844;1256;60356;-42
2023/06/04 00:24:40;;;;;;;3.40;1.20;;;;;;;4.50;100.00;101734.88;105811;1253;72641;-43
2023/06/04 00:27:08;;;;;;;1.90;1.40;;;;;;;4.51;100.00;101730.64;105672;1253;63924;-42
2023/06/04 00:29:36;;;;;;;2.30;1.30;;;;;;;4.53;100.00;101729.00;105718;1253;72858;-42
2023/06/04 00:32:04;;;;;;;6.20;1.20;;;;;;;4.53;100.00;101722.66;105651;1259;61885;-42
2023/06/04 00:34:32;;;;;;;4.30;1.10;;;;;;;4.53;100.00;101723.52;105791;1253;61001;-43
2023/06/04 00:37:01;;;;;;;3.40;1.00;;;;;;;4.57;100.00;101724.14;105886;1253;72785;-42
2023/06/04 00:39:29;;;;;;;7.10;2.10;;;;;;;4.56;100.00;101723.62;105708;1255;63905;-42
2023/06/04 00:41:57;;;;;;;2.80;1.40;;;;;;;4.53;100.00;101724.19;105780;1257;71358;-42
2023/06/04 00:44:25;;;;;;;0.90;0.90;;;;;;;4.50;100.00;101720.35;105702;1253;60681;-42
2023/06/04 00:46:56;;;;;;;5.50;1.40;;;;;;;4.45;100.00;101719.88;105724;1253;60447;-42
2023/06/04 00:49:23;;;;;;;6.50;1.30;;;;;;;4.42;100.00;101723.39;105671;1257;74130;-42
2023/06/04 00:51:52;;;;;;;3.00;1.00;;;;;;;4.43;100.00;101722.38;105687;1253;64082;-42
2023/06/04 00:54:20;;;;;;;1.60;0.80;;;;;;;4.45;100.00;101716.66;105711;1259;72076;-42
2023/06/04 00:56:48;;;;;;;6.20;1.40;;;;;;;4.45;100.00;101721.10;105720;1257;61703;-42
2023/06/04 00:59:16;;;;;;;3.50;1.00;;;;;;;4.45;100.00;101721.60;105819;1257;60355;-42
2023/06/04 01:02:06;;;;;;;4.00;1.00;;;;;;;4.45;100.00;101725.87;105848;1258;73805;-42
2023/06/04 01:04:55;;;;;;;10.50;1.20;;;;;;;4.46;100.00;101725.73;105777;1258;65145;-42
2023/06/04 01:07:23;;;;;;;2.30;1.00;;;;;;;4.43;100.00;101729.59;105783;1259;72026;-42
2023/06/04 01:09:51;;;;;;;5.80;1.60;;;;;;;4.37;100.00;101733.67;105645;1254;61836;-42
2023/06/04 01:12:18;;;;;;;2.40;1.10;;;;;;;4.32;100.00;101737.80;105763;1253;60374;-42
2023/06/04 01:14:46;;;;;;;1.50;1.10;;;;;;;4.29;100.00;101735.88;105884;1257;72839;-42
2023/06/04 01:17:17;;;;;;;3.00;1.30;;;;;;;4.29;100.00;101738.95;105686;1253;63460;-42
2023/06/04 01:20:04;;;;;;;3.70;1.10;;;;;;;4.28;100.00;101736.35;105686;1256;71514;-43
2023/06/04 01:22:51;;;;;;;5.70;1.00;;;;;;;4.24;100.00;101741.36;105751;1257;60525;-41
2023/06/04 01:25:38;;;;;;;2.20;1.10;;;;;;;4.18;100.00;101748.36;105743;1258;60346;-42
2023/06/04 01:28:07;;;;;;;1.50;0.90;;;;;;;4.16;100.00;101750.36;105851;1253;73806;-43
2023/06/04 01:30:42;;;;;;;5.30;0.80;;;;;;;4.15;100.00;101753.92;105664;1253;65178;-43
2023/06/04 01:33:10;;;;;;;2.40;1.20;;;;;;;4.13;100.00;101758.14;105724;1253;72625;-43
2023/06/04 01:35:38;;;;;;;2.50;1.10;;;;;;;4.14;100.00;101760.05;105717;1255;60559;-42
2023/06/04 01:38:06;;;;;;;7.90;1.00;;;;;;;4.17;100.00;101764.20;105722;1253;60361;-42
2023/06/04 01:40:34;;;;;;;1.70;1.20;;;;;;;4.21;100.00;101769.66;105673;1254;72660;-43
2023/06/04 01:43:02;;;;;;;7.20;1.10;;;;;;;4.25;100.00;101772.84;105910;1256;65164;-42
2023/06/04 01:45:30;;;;;;;1.40;1.00;;;;;;;4.28;100.00;101777.02;105872;1253;71444;-43
2023/06/04 01:47:58;;;;;;;3.60;1.40;;;;;;;4.31;100.00;101778.30;105780;1253;60547;-43
2023/06/04 01:50:26;;;;;;;2.60;1.10;;;;;;;4.33;100.00;101779.39;105735;1257;60454;-44
2023/06/04 01:52:53;;;;;;;1.40;1.30;;;;;;;4.35;100.00;101782.17;105734;1253;73886;-41
2023/06/04 01:55:21;;;;;;;8.70;1.30;;;;;;;4.35;100.00;101786.46;105668;1257;65238;-41
2023/06/04 01:57:50;;;;;;;5.50;1.30;;;;;;;4.35;100.00;101783.89;105622;1256;72654;-41
2023/06/04 02:00:17;;;;;;;19.30;1.60;;;;;;;4.33;100.00;101788.77;105639;1260;60463;-43
2023/06/04 02:02:45;;;;;;;6.70;1.20;;;;;;;4.31;100.00;101795.57;105628;1258;60504;-43
2023/06/04 02:05:14;;;;;;;2.80;1.40;;;;;;;4.31;100.00;101804.63;105608;1256;72691;-45
2023/06/04 02:07:44;;;;;;;9.10;1.60;;;;;;;4.31;100.00;101808.40;105379;1258;64017;-42
2023/06/04 02:10:13;;;;;;;1.70;1.60;;;;;;;4.32;100.00;101812.18;105404;1258;71422;-43
2023/06/04 02:12:56;;;;;;;3.60;1.00;;;;;;;4.34;100.00;101811.55;105697;1259;60938;-42
2023/06/04 02:15:25;;;;;;;5.70;1.40;;;;;;;4.35;100.00;101806.96;105666;1258;60352;-43
2023/06/04 02:18:00;;;;;;;3.30;1.80;;;;;;;4.38;100.00;101810.95;105629;1258;73833;-42
2023/06/04 02:20:28;;;;;;;4.50;1.30;;;;;;;4.43;100.00;101813.51;105665;1258;65340;-42
2023/06/04 02:22:56;;;;;;;9.60;1.00;;;;;;;4.50;100.00;101816.11;105660;1259;72706;-42
2023/06/04 02:25:26;;;;;;;4.90;1.40;;;;;;;4.55;100.00;101815.39;105619;1256;60745;-42
2023/06/04 02:27:53;;;;;;;5.40;1.30;;;;;;;4.61;100.00;101815.36;105618;1256;61020;-42
2023/06/04 02:30:21;;;;;;;2.90;1.70;;;;;;;4.65;100.00;101818.04;105609;1256;73936;-42
2023/06/04 02:32:50;;;;;;;8.60;1.20;;;;;;;4.66;100.00;101821.84;105659;1256;64286;-42
2023/06/04 02:35:22;;;;;;;4.60;1.20;;;;;;;4.70;100.00;101821.79;105656;1258;72732;-41
2023/06/04 02:37:50;;;;;;;7.60;1.40;;;;;;;4.76;100.00;101822.98;105697;1258;60537;-42
2023/06/04 02:40:18;;;;;;;1.50;1.20;;;;;;;4.81;100.00;101823.63;105665;1258;60343;-42
2023/06/04 02:42:46;;;;;;;2.80;1.10;;;;;;;4.89;100.00;101826.58;105595;1256;72711;-42
2023/06/04 02:47:01;;;;;;;2.30;1.40;;;;;;;5.05;100.00;101849.41;102738;1292;600826;-42
2023/06/04 02:49:29;;;;;;;8.00;1.40;;;;;;;5.11;100.00;101833.13;104787;1269;59432;-42
2023/06/04 02:51:56;;;;;;;1.10;0.90;;;;;;;5.21;100.00;101841.95;104851;1269;59169;-42
2023/06/04 02:54:24;;;;;;;1.60;1.10;;;;;;;5.29;100.00;101845.59;104847;1269;72224;-42
2023/06/04 02:56:52;;;;;;;4.50;1.30;;;;;;;5.38;100.00;101849.75;104829;1267;65283;-43
2023/06/04 02:59:20;;;;;;;5.50;1.00;;;;;;;5.49;100.00;101848.13;104948;1271;71389;-42
2023/06/04 03:01:48;;;;;;;4.40;1.40;;;;;;;5.60;100.00;101852.00;104836;1268;216513;-42
2023/06/04 03:04:16;;;;;;;4.70;1.20;;;;;;;5.70;100.00;101853.27;104964;1270;59313;-42
2023/06/04 03:06:47;;;;;;;4.10;1.50;;;;;;;5.80;100.00;101860.87;104858;1270;71059;-42
2023/06/04 03:09:15;;;;;;;2.10;1.30;;;;;;;5.94;100.00;101868.23;105190;1274;64175;-42
2023/06/04 03:11:42;;;;;;;5.30;1.10;;;;;;;6.07;100.00;101880.55;105117;1264;71448;-42
2023/06/04 03:14:10;;;;;;;8.50;1.80;;;;;;;6.16;100.00;101881.27;105508;1258;60457;-42
2023/06/04 03:16:39;;;;;;;2.20;1.40;;;;;;;6.28;100.00;101890.79;105459;1262;59543;-43
2023/06/04 03:19:08;;;;;;;1.60;1.20;;;;;;;6.40;100.00;101895.16;105586;1258;71746;-42
2023/06/04 03:21:39;;;;;;;12.40;1.60;;;;;;;6.54;100.00;101902.34;105595;1262;65292;-42
2023/06/04 03:24:07;;;;;;;2.40;1.20;;;;;;;6.67;100.00;101907.75;105617;1262;72637;-42
2023/06/04 03:26:35;;;;;;;3.50;1.10;;;;;;;6.80;100.00;101906.13;105571;1261;60455;-41
2023/06/04 03:29:03;;;;;;;4.30;1.10;;;;;;;6.97;100.00;101912.29;105474;1256;59545;-42
2023/06/04 03:31:32;;;;;;;6.60;1.60;;;;;;;7.15;100.00;101911.96;105644;1261;73063;-42
2023/06/04 03:34:00;;;;;;;5.20;1.60;;;;;;;7.35;100.00;101899.95;105485;1258;64098;-42
2023/06/04 03:36:37;;;;;;;1.70;1.20;;;;;;;7.55;100.00;101899.63;105562;1258;72682;-42
2023/06/04 03:39:06;;;;;;;3.10;1.30;;;;;;;7.81;100.00;101891.98;105565;1258;60713;-42
2023/06/04 03:41:34;;;;;;;4.70;1.50;;;;;;;8.10;100.00;101871.25;105544;1258;59587;-42
2023/06/04 03:44:03;;;;;;;6.30;1.50;;;;;;;8.46;100.00;101840.63;105597;1262;72073;-43
2023/06/04 03:46:33;;;;;;;3.30;1.60;;;;;;;8.84;100.00;101792.36;105560;1260;64309;-42
2023/06/04 03:49:03;;;;;;;4.00;1.60;;;;;;;9.21;100.00;101692.63;105628;1260;70708;-42
2023/06/04 03:51:32;;;;;;;7.30;1.50;;;;;;;9.53;100.00;101567.20;105585;1255;60038;-43
2023/06/04 03:54:00;;;;;;;7.30;1.40;;;;;;;9.83;100.00;101429.90;105619;1261;59743;-42
2023/06/04 03:56:28;;;;;;;4.50;1.70;;;;;;;10.11;100.00;101317.08;105549;1261;73480;-42
2023/06/04 03:58:56;;;;;;;4.30;1.40;;;;;;;10.32;100.00;101227.48;105557;1262;64585;-42
2023/06/04 04:01:24;;;;;;;6.70;1.80;;;;;;;10.47;100.00;101188.96;105436;1259;71379;-42
2023/06/04 04:03:52;;;;;;;5.00;1.60;;;;;;;10.55;100.00;101211.00;105583;1257;59884;-43
2023/06/04 04:06:20;;;;;;;6.00;1.20;;;;;;;10.59;100.00;101247.73;105491;1257;59957;-43
2023/06/04 04:08:48;;;;;;;3.70;1.40;;;;;;;10.67;100.00;101264.10;105602;1262;72430;-42
2023/06/04 04:11:17;;;;;;;3.40;1.60;;;;;;;10.81;100.00;101276.26;105460;1263;64265;-43
2023/06/04 04:13:45;;;;;;;2.00;1.20;;;;;;;10.94;100.00;101284.47;105607;1261;71450;-42
2023/06/04 04:16:13;;;;;;;3.10;1.20;;;;;;;11.10;100.00;101291.77;105539;1259;59621;-43
2023/06/04 04:18:44;;;;;;;3.60;1.30;;;;;;;11.30;100.00;101302.87;105494;1263;59550;-43
2023/06/04 04:21:12;;;;;;;6.60;1.50;;;;;;;11.45;100.00;101314.49;105586;1261;73065;-43
2023/06/04 04:23:40;;;;;;;4.60;1.50;;;;;;;11.60;100.00;101347.20;105406;1258;65214;-43
2023/06/04 04:26:09;;;;;;;4.60;1.10;;;;;;;11.68;100.00;101367.02;105582;1261;71721;-43
2023/06/04 04:28:38;;;;;;;3.00;1.30;;;;;;;11.80;100.00;101378.00;105559;1257;59711;-43
2023/06/04 04:31:06;;;;;;;9.10;1.40;;;;;;;11.99;100.00;101376.09;105584;1258;59683;-43
2023/06/04 04:33:40;;;;;;;1.90;0.90;;;;;;;12.19;100.00;101387.52;105524;1260;72105;-43
2023/06/04 04:36:13;;;;;;;5.10;1.50;;;;;;;12.38;100.00;101409.64;105609;1264;64094;-43
2023/06/04 04:38:45;;;;;;;;;;;;;;;12.58;100.00;101437.99;105542;1263;71587;-42
2023/06/04 04:41:13;;;;;;;4.30;1.20;;;;;;;12.71;100.00;101463.13;105546;1257;59664;-43
2023/06/04 04:43:43;;;;;;;5.70;1.10;;;;;;;12.82;100.00;101475.30;105572;1263;59656;-42
2023/06/04 04:46:17;;;;;;;;;;;;;;;12.95;100.00;101495.59;105535;1264;71126;-42
2023/06/04 04:48:45;;;;;;;7.20;1.00;;;;;;;13.05;100.00;101509.86;105600;1256;64061;-42
2023/06/04 04:51:12;;;;;;;8.20;1.00;;;;;;;13.11;100.00;101515.14;105706;1258;71633;-42
2023/06/04 04:53:40;;;;;;;5.10;1.50;;;;;;;13.18;100.00;101529.61;105685;1258;60002;-42
2023/06/04 04:56:08;;;;;;;3.40;1.80;;;;;;;13.29;100.00;101533.48;105741;1258;59638;-42
2023/06/04 04:58:38;;;;;;;3.40;1.40;;;;;;;13.37;100.00;101536.67;105679;1258;72103;-42
2023/06/04 05:01:06;;;;;;;3.20;0.90;;;;;;;13.49;100.00;101538.64;105762;1257;63661;-42
2023/06/04 05:03:35;;;;;;;1.70;1.10;;;;;;;13.58;100.00;101537.11;105698;1255;71839;-42
2023/06/04 05:06:02;;;;;;;4.10;1.00;;;;;;;13.62;100.00;101551.46;105715;1260;59733;-42
2023/06/04 05:08:30;;;;;;;2.80;0.90;;;;;;;13.78;100.00;101546.38;105719;1258;59531;-42
2023/06/04 05:10:58;;;;;;;2.40;2.20;;;;;;;14.00;100.00;101541.71;105659;1258;72130;-42
2023/06/04 05:13:26;;;;;;;5.50;1.20;;;;;;;14.23;97.10;101528.68;105643;1258;65220;-42
2023/06/04 05:15:58;;;;;;;4.60;1.70;;;;;;;14.45;73.48;101466.48;105771;1254;71544;-42
2023/06/04 05:18:29;;;;;;;6.50;1.00;;;;;;;14.51;68.74;101483.92;105708;1254;60042;-42
2023/06/04 05:21:02;;;;;;;3.50;0.90;;;;;;;14.58;66.93;101490.39;105758;1254;59536;-42
2023/06/04 05:23:33;;;;;;;2.00;0.90;;;;;;;14.68;64.95;101475.95;105690;1259;73022;-44
2023/06/04 05:26:01;;;;;;;4.50;1.00;;;;;;;14.76;62.26;101434.65;105609;1258;64295;-43
2023/06/04 05:28:29;;;;;;;7.20;0.70;;;;;;;14.81;60.26;101400.16;105618;1254;71731;-44
2023/06/04 05:30:59;;;;;;;0.60;0.60;;;;;;;14.77;59.52;101422.98;105654;1259;59668;-45
2023/06/04 05:33:30;;;;;;;2.70;0.60;;;;;;;14.82;60.25;101484.40;105696;1259;60335;-44
2023/06/04 05:36:01;;;;;;;2.10;1.00;;;;;;;15.00;59.67;101474.49;105720;1257;73123;-42
2023/06/04 05:38:32;;;;;;;2.80;0.80;;;;;;;15.17;58.36;101425.29;105703;1255;63924;-42
2023/06/04 05:41:03;;;;;;;5.60;0.90;;;;;;;15.30;55.25;101272.86;105757;1255;72245;-43
2023/06/04 05:43:33;;;;;;;0.50;0.50;;;;;;;15.31;54.47;101266.58;105719;1257;59640;-42
2023/06/04 05:46:01;;;;;;;8.60;0.70;;;;;;;15.30;55.90;101412.30;105750;1257;60072;-42
2023/06/04 05:48:28;;;;;;;5.70;0.90;;;;;;;15.42;54.65;101332.91;105653;1254;71477;-42
2023/06/04 05:50:56;;;;;;;5.80;0.60;;;;;;;15.43;55.29;101402.10;105649;1259;65157;-42
2023/06/04 05:53:24;;;;;;;1.20;0.90;;;;;;;15.51;55.16;101402.26;105691;1259;72716;-43
2023/06/04 05:55:52;;;;;;;9.20;0.90;;;;;;;15.65;54.58;101362.60;105843;1253;59647;-43
2023/06/04 05:58:19;;;;;;;2.40;0.70;;;;;;;15.75;53.43;101286.13;105687;1257;59728;-42
2023/06/04 06:00:49;;;;;;;2.50;0.80;;;;;;;15.83;53.23;101296.71;105724;1258;71870;-42
2023/06/04 06:03:17;;;;;;;7.50;1.20;;;;;;;15.86;52.97;101280.79;105709;1254;64136;-43
2023/06/04 06:05:46;;;;;;;0.70;0.60;;;;;;;15.95;50.91;101122.37;105767;1254;71042;-43
2023/06/04 06:08:14;;;;;;;3.80;0.80;;;;;;;15.97;51.40;101199.06;105706;1255;59725;-42
2023/06/04 06:10:42;;;;;;;0.80;0.60;;;;;;;16.04;51.95;101269.02;105899;1255;60053;-43
2023/06/04 06:13:10;;;;;;;2.30;0.50;;;;;;;16.16;51.40;101226.55;105728;1254;71817;-43
2023/06/04 06:15:38;;;;;;;2.30;0.90;;;;;;;16.22;50.73;101188.76;105645;1254;65297;-43
2023/06/04 06:18:06;;;;;;;2.60;0.70;;;;;;;16.24;49.56;101073.08;105633;1253;72614;-43
2023/06/04 06:20:33;;;;;;;2.70;0.60;;;;;;;16.14;48.94;101023.94;105721;1254;59714;-43
2023/06/04 06:23:08;;;;;;;2.40;0.60;;;;;;;16.01;49.57;101133.31;105839;1257;60029;-43
2023/06/04 06:25:40;;;;;;;2.10;0.80;;;;;;;15.97;50.26;101226.71;105679;1258;73024;-43
2023/06/04 06:28:13;;;;;;;1.20;0.50;;;;;;;15.99;49.53;101156.02;105728;1253;64045;-44
2023/06/04 06:30:41;;;;;;;3.10;0.70;;;;;;;15.87;50.68;101284.95;105678;1257;72674;-43
2023/06/04 06:33:09;;;;;;;4.00;0.80;;;;;;;15.97;51.18;101359.54;105681;1252;60042;-42
2023/06/04 06:35:36;;;;;;;0.80;0.70;;;;;;;16.03;50.35;101270.26;105722;1254;59701;-42
2023/06/04 06:38:04;;;;;;;4.00;0.60;;;;;;;16.09;49.22;101138.65;105666;1254;71842;-42
2023/06/04 06:40:32;;;;;;;2.00;1.10;;;;;;;16.20;49.46;101194.55;105866;1253;63721;-44
2023/06/04 06:42:59;;;;;;;3.50;0.90;;;;;;;16.27;49.42;101189.80;105683;1259;72001;-43
2023/06/04 06:45:27;;;;;;;6.90;0.80;;;;;;;16.30;48.98;101151.41;105801;1257;59576;-43
2023/06/04 06:47:54;;;;;;;1.50;0.90;;;;;;;16.34;48.16;101073.27;105654;1257;59622;-43
2023/06/04 06:50:22;;;;;;;5.40;0.60;;;;;;;16.34;48.44;101112.11;105682;1254;71747;-43
2023/06/04 06:52:50;;;;;;;5.30;0.70;;;;;;;16.37;48.67;101160.59;105703;1257;65185;-43
2023/06/04 06:55:18;;;;;;;1.90;0.80;;;;;;;16.47;48.63;101142.52;105647;1257;72794;-43
2023/06/04 06:57:45;;;;;;;2.00;1.00;;;;;;;16.60;47.70;101072.92;105670;1260;60582;-43
2023/06/04 07:00:13;;;;;;;5.30;0.80;;;;;;;16.65;47.03;100961.95;105686;1257;60424;-44
2023/06/04 07:02:41;;;;;;;1.30;0.50;;;;;;;16.67;45.69;100816.05;105664;1257;73803;-43
2023/06/04 07:05:09;;;;;;;0.80;0.60;;;;;;;16.67;44.55;100664.64;105694;1257;65217;-43
2023/06/04 07:07:36;;;;;;;0.80;0.50;;;;;;;16.71;44.80;100716.58;105841;1254;71692;-43
2023/06/04 07:10:04;;;;;;;0.70;0.50;;;;;;;16.81;43.98;100644.21;105679;1254;60486;-43
2023/06/04 07:12:32;;;;;;;0.80;0.40;;;;;;;16.77;42.81;100462.09;105651;1254;60531;-43
2023/06/04 07:14:59;;;;;;;2.80;0.70;;;;;;;16.74;43.00;100526.88;105698;1257;73797;-43
2023/06/04 07:17:27;;;;;;;0.50;0.50;;;;;;;16.72;43.10;100545.42;105871;1253;65388;-44
2023/06/04 07:19:55;;;;;;;2.60;0.70;;;;;;;16.76;43.17;100559.55;105685;1258;72686;-44
2023/06/04 07:22:22;;;;;;;0.50;0.50;;;;;;;16.80;43.74;100634.29;105640;1254;60485;-43
2023/06/04 07:24:50;;;;;;;3.70;0.60;;;;;;;16.96;42.59;100529.46;105673;1257;60451;-43
2023/06/04 07:27:18;;;;;;;3.30;0.40;;;;;;;17.02;42.75;100505.50;105728;1254;72659;-43
2023/06/04 07:29:46;;;;;;;3.50;0.60;;;;;;;17.17;41.11;100331.17;105737;1254;64027;-44
2023/06/04 07:32:13;;;;;;;0.30;0.30;;;;;;;17.25;41.23;100295.20;105685;1253;71661;-43
2023/06/04 07:34:41;;;;;;;0.50;0.50;;;;;;;17.28;40.84;100247.46;105701;1254;60524;-43
2023/06/04 07:37:09;;;;;;;2.80;0.60;;;;;;;17.29;41.78;100388.84;105701;1254;60531;-44
2023/06/04 07:39:38;;;;;;;2.20;0.60;;;;;;;17.19;42.65;100531.23;105723;1258;72609;-45
2023/06/04 07:42:07;;;;;;;1.40;0.70;;;;;;;17.06;43.30;100653.84;105698;1258;65268;-44
2023/06/04 07:44:36;;;;;;;1.10;0.70;;;;;;;17.16;42.64;100600.40;105675;1255;72659;-43
2023/06/04 07:47:04;;;;;;;3.80;0.50;;;;;;;17.27;40.94;100383.34;105691;1254;60342;-44
2023/06/04 07:49:31;;;;;;;5.80;0.50;;;;;;;17.23;41.07;100337.48;105703;1254;60360;-44
2023/06/04 07:52:00;;;;;;;4.70;1.00;;;;;;;17.26;41.23;100377.31;105651;1254;73013;-44
2023/06/04 07:54:27;;;;;;;0.90;0.50;;;;;;;17.29;40.89;100337.38;105669;1258;65353;-44
2023/06/04 07:56:56;;;;;;;1.50;0.40;;;;;;;17.33;40.76;100336.01;105642;1258;71519;-43
2023/06/04 07:59:24;;;;;;;2.50;0.50;;;;;;;17.36;41.15;100402.48;105646;1259;60677;-43
2023/06/04 08:01:52;;;;;;;2.70;0.50;;;;;;;17.44;41.79;100491.39;105658;1254;60335;-44
2023/06/04 08:04:19;;;;;;;2.30;0.50;;;;;;;17.58;41.03;100407.02;105660;1255;73035;-44
2023/06/04 08:06:49;;;;;;;1.10;0.70;;;;;;;17.68;41.46;100460.05;105659;1259;63903;-42
2023/06/04 08:09:17;;;;;;;2.10;0.60;;;;;;;17.84;41.30;100457.74;105643;1260;71422;-43
2023/06/04 08:11:45;;;;;;;3.20;0.50;;;;;;;17.98;40.70;100386.39;105657;1254;60470;-44
2023/06/04 08:14:13;;;;;;;1.40;0.60;;;;;;;18.06;40.69;100344.11;105741;1260;60348;-44
2023/06/04 08:16:41;;;;;;;1.50;0.90;;;;;;;18.17;40.53;100335.35;105679;1254;72629;-43
2023/06/04 08:19:09;;;;;;;0.80;0.50;;;;;;;18.13;39.77;100236.39;105667;1258;63835;-44
2023/06/04 08:21:37;;;;;;;1.40;0.50;;;;;;;18.08;40.29;100301.06;105643;1258;72640;-44
2023/06/04 08:24:04;;;;;;;1.20;0.70;;;;;;;18.20;40.75;100362.27;105636;1254;60535;-44
2023/06/04 08:26:33;;;;;;;0.60;0.60;;;;;;;18.39;41.17;100429.73;105713;1258;60361;-44
2023/06/04 08:29:02;;;;;;;1.10;0.90;;;;;;;18.65;40.15;100336.45;105666;1259;71949;-44
2023/06/04 08:31:31;;;;;;;9.50;2.00;;;;;;;18.72;39.88;100265.14;105682;1259;64035;-44
2023/06/04 08:33:58;;;;;;;1.10;0.90;;;;;;;18.79;40.09;100296.73;105721;1259;71436;-44
2023/06/04 08:36:27;;;;;;;2.90;0.70;;;;;;;18.88;39.88;100282.23;105677;1253;60498;-43
2023/06/04 08:38:54;;;;;;;1.60;0.60;;;;;;;18.82;38.70;100120.55;105662;1258;60406;-43
2023/06/04 08:41:42;;;;;;;9.10;3.10;;;;;;;18.66;39.87;100246.09;105673;1253;72630;-44
2023/06/04 08:44:10;;;;;;;0.80;0.60;;;;;;;18.79;39.47;100239.26;105633;1258;64044;-44
2023/06/04 08:46:39;;;;;;;3.10;1.00;;;;;;;18.76;40.08;100304.77;105485;1254;72682;-42
2023/06/04 08:49:07;;;;;;;1.60;0.70;;;;;;;18.87;39.71;100282.34;105701;1257;60620;-47
2023/06/04 08:51:40;;;;;;;0.50;0.50;;;;;;;18.94;39.40;100249.04;105740;1254;60531;-48
2023/06/04 08:54:08;;;;;;;1.60;0.60;;;;;;;18.98;39.53;100234.34;105724;1254;72559;-45
2023/06/04 08:56:36;;;;;;;7.80;0.90;;;;;;;19.07;39.84;100303.78;105754;1259;64001;-43
2023/06/04 08:59:07;;;;;;;6.00;0.60;;;;;;;19.12;38.33;100117.80;105649;1253;72334;-44
2023/06/04 09:01:36;;;;;;;4.00;0.50;;;;;;;19.12;38.93;100138.26;105914;1254;60566;-44
2023/06/04 09:04:05;;;;;;;4.50;1.10;;;;;;;19.24;39.00;100189.66;105726;1254;60404;-43
2023/06/04 09:06:38;;;;;;;3.20;1.00;;;;;;;19.37;38.53;100104.05;105650;1254;72603;-43
2023/06/04 09:09:07;;;;;;;1.10;0.80;;;;;;;19.52;39.66;100242.80;105742;1255;65133;-43
2023/06/04 09:11:42;;;;;;;1.50;0.80;;;;;;;19.64;37.63;100003.01;105715;1254;72091;-44
2023/06/04 09:14:10;;;;;;;2.70;0.60;;;;;;;19.61;38.73;100110.82;105682;1257;60531;-44
2023/06/04 09:16:47;;;;;;;0.60;0.60;;;;;;;19.79;38.41;100090.11;105711;1260;60408;-43
2023/06/04 09:19:17;;;;;;;0.60;0.60;;;;;;;19.84;37.77;99993.02;105706;1253;72542;-43
2023/06/04 09:21:49;;;;;;;3.70;0.80;;;;;;;19.81;37.81;99985.47;105701;1257;64080;-44
2023/06/04 09:24:18;;;;;;;3.10;0.50;;;;;;;19.90;37.29;99910.88;105733;1253;71401;-44
2023/06/04 09:26:46;;;;;;;0.50;0.50;;;;;;;19.94;37.85;99986.59;105722;1257;60534;-44
2023/06/04 09:29:15;;;;;;;0.80;0.50;;;;;;;20.09;37.55;99972.83;105693;1254;60473;-44
2023/06/04 09:31:47;;;;;;;10.80;6.90;;;;;;;20.20;35.84;99764.95;105724;1253;73304;-43
2023/06/04 09:34:15;;;;;;;2.20;1.80;;;;;;;20.12;37.04;99843.77;105734;1253;63967;-44
2023/06/04 09:36:43;;;;;;;3.80;0.60;;;;;;;20.20;37.17;99915.75;105731;1253;72647;-43
2023/06/04 09:39:17;;;;;;;1.50;1.30;;;;;;;20.25;36.51;99819.61;105686;1254;60867;-44
2023/06/04 09:41:44;;;;;;;0.40;0.40;;;;;;;20.26;36.71;99854.52;105680;1257;60432;-44
2023/06/04 09:44:13;;;;;;;2.00;0.70;;;;;;;20.39;37.18;99922.89;105678;1254;72858;-44
2023/06/04 09:46:41;;;;;;;4.20;0.50;;;;;;;20.52;37.27;99926.23;105695;1257;65345;-43
2023/06/04 09:49:08;;;;;;;2.70;0.50;;;;;;;20.74;36.84;99889.48;105670;1257;71395;-44
2023/06/04 09:51:48;;;;;;;4.30;0.60;;;;;;;20.85;35.99;99783.88;105653;1253;60507;-43
2023/06/04 09:54:16;;;;;;;7.50;0.90;;;;;;;20.77;35.70;99668.23;105714;1254;60332;-44
2023/06/04 09:56:44;;;;;;;0.40;0.40;;;;;;;20.78;36.16;99774.71;105662;1254;73871;-44
2023/06/04 09:59:13;;;;;;;2.80;1.00;;;;;;;20.85;36.24;99767.42;105706;1254;63959;-44
2023/06/04 10:01:43;;;;;;;4.60;3.50;;;;;;;21.08;36.35;99799.38;105680;1257;71769;-44
2023/06/04 10:04:12;;;;;;;0.60;0.60;;;;;;;21.34;36.61;99829.64;105669;1258;60513;-44
2023/06/04 10:06:40;;;;;;;1.80;0.90;;;;;;;21.40;35.12;99610.95;105687;1256;60451;-45
2023/06/04 10:09:08;;;;;;;0.80;0.60;;;;;;;21.35;35.96;99722.35;105734;1253;72681;-43
2023/06/04 10:11:41;;;;;;;5.60;0.80;;;;;;;21.41;36.06;99749.29;105713;1257;63913;-44
2023/06/04 10:14:15;;;;;;;3.10;1.10;;;;;;;21.58;35.03;99613.02;105719;1255;71453;-43
2023/06/04 10:16:43;;;;;;;8.40;1.20;;;;;;;21.55;33.92;99459.73;105699;1253;60401;-44
2023/06/04 10:19:10;;;;;;;5.80;5.00;;;;;;;21.46;34.05;99447.98;105760;1253;60382;-44
2023/06/04 10:21:38;;;;;;;2.30;1.40;;;;;;;21.44;33.44;99353.35;105659;1258;73891;-44
2023/06/04 10:24:06;;;;;;;1.10;0.60;;;;;;;21.46;33.77;99375.55;105696;1254;65471;-44
2023/06/04 10:26:35;;;;;;;1.40;0.80;;;;;;;21.45;33.04;99320.80;105730;1257;71788;-44
2023/06/04 10:29:02;;;;;;;0.90;0.40;;;;;;;21.37;32.20;99181.30;105678;1254;60621;-44
2023/06/04 10:31:30;;;;;;;2.00;0.70;;;;;;;21.19;32.94;99188.38;105665;1257;60436;-43
2023/06/04 10:33:58;;;;;;;0.60;0.60;;;;;;;21.17;32.46;99152.48;105709;1257;73834;-43
2023/06/04 10:36:26;;;;;;;2.20;0.80;;;;;;;21.00;32.78;99174.20;105645;1254;64028;-43
2023/06/04 10:38:54;;;;;;;3.00;0.70;;;;;;;21.10;33.63;99288.77;105638;1254;72668;-43
2023/06/04 10:41:23;;;;;;;5.80;1.50;;;;;;;21.23;33.24;99246.09;105672;1258;60526;-43
2023/06/04 10:43:52;;;;;;;3.30;0.40;;;;;;;21.34;33.11;99249.64;105745;1254;60406;-43
2023/06/04 10:46:20;;;;;;;1.20;0.80;;;;;;;21.44;33.04;99215.14;105702;1253;72850;-44
2023/06/04 10:48:49;;;;;;;2.00;1.40;;;;;;;21.51;33.83;99294.16;105747;1253;64123;-44
2023/06/04 10:51:17;;;;;;;0.70;0.70;;;;;;;21.68;32.23;99148.36;105673;1257;73182;-43
2023/06/04 10:53:44;;;;;;;5.50;0.50;;;;;;;21.61;32.67;99172.85;105699;1258;60531;-44
2023/06/04 10:56:12;;;;;;;2.10;1.40;;;;;;;21.66;32.40;99131.69;105668;1257;60335;-44
2023/06/04 10:58:40;;;;;;;0.90;0.80;;;;;;;21.66;33.35;99253.99;105657;1257;73015;-44
2023/06/04 11:01:07;;;;;;;2.80;1.50;;;;;;;21.71;33.55;99292.40;105647;1253;63286;-45
2023/06/04 11:03:38;;;;;;;2.20;0.60;;;;;;;21.93;32.74;99239.95;105666;1259;72107;-44
2023/06/04 11:06:17;;;;;;;4.40;0.40;;;;;;;21.94;32.45;99149.11;105674;1253;60419;-44
2023/06/04 11:08:44;;;;;;;3.30;0.40;;;;;;;21.94;32.53;99175.45;105733;1257;60457;-44
2023/06/04 11:11:16;;;;;;;1.30;0.50;;;;;;;21.70;32.37;99124.09;105716;1257;73933;-43
2023/06/04 11:13:43;;;;;;;2.00;1.00;;;;;;;21.75;33.47;99269.79;105705;1254;64032;-43
2023/06/04 11:16:19;;;;;;;2.00;0.40;;;;;;;22.09;34.13;99383.23;105660;1257;71744;-43
2023/06/04 11:18:57;;;;;;;3.50;0.60;;;;;;;22.44;33.44;99308.94;105726;1254;60493;-45
2023/06/04 11:21:25;;;;;;;3.40;0.50;;;;;;;22.72;32.19;99188.95;105698;1257;60476;-44
2023/06/04 11:23:58;;;;;;;3.10;1.20;;;;;;;22.79;30.80;98958.52;105691;1253;73774;-44
2023/06/04 11:26:33;;;;;;;4.10;0.40;;;;;;;22.47;32.05;99035.41;105678;1253;63885;-44